Kalenakliyat 2 — TCBA7 — position and weather

sailwx.info

Track history (hours):
 
Tides and Currents Weather Stations Pressure Air Temp Water Temp Dewpoint Dewpoint Depression Visibility Wind Speed Wind Dir Waves Ship Positions

Kalenakliyat 2

Last reported at 2016-Sep-25 12:32 UTC. Time now 2016-Sep-27 12:10 UTC.
Position N 40°44' E 029°11'.

Length 72 m; draft 4.4 m.

Type: Cargo ship. MMSI: 271002023.

Date/timePositionNaut miles runAvg speedWind from/ knotsBaromVisibWave heightAir tempDewpointWater temp
2016-Sep-25 12:32N 40°44' E 029°11'9 8.4
2016-Sep-25 11:31N 40°45' E 029°22'0 0.1
2016-Sep-25 10:33N 40°45' E 029°22'0 0.0
2016-Sep-25 04:23N 40°45' E 029°22'9 0.2
2016-Sep-23 13:28N 40°44' E 029°11'9 1.3
2016-Sep-23 06:25N 40°45' E 029°22'0 0.0
2016-Sep-23 03:33N 40°45' E 029°22'8 7.8
2016-Sep-23 02:33N 40°44' E 029°12'9 9.3
2016-Sep-23 01:33N 40°43' E 029°00'1 0.0
2016-Sep-21 16:24N 40°42' E 028°59'18 2.3
2016-Sep-21 08:33N 40°45' E 029°22'0 0.0
2016-Sep-21 05:33N 40°45' E 029°22'3 1.6
2016-Sep-21 03:33N 40°45' E 029°18'10 9.6
2016-Sep-21 02:32N 40°43' E 029°05'1 0.0
2016-Sep-19 18:28N 40°44' E 029°06'13 6.4
2016-Sep-19 16:30N 40°45' E 029°22'0 0.0
2016-Sep-19 11:04N 40°45' E 029°22'6 4.3
2016-Sep-19 09:33N 40°48' E 029°14'5 2.7
2016-Sep-19 07:33N 40°53' E 029°11'0 0.0
2016-Sep-19 06:33N 40°53' E 029°11'8 2.8
2016-Sep-19 03:33N 40°48' E 029°02'  
2016-Sep-16 03:06N 39°55' E 026°07'  
Track history (hours):
 
Tides and Currents Weather Stations Pressure Air Temp Water Temp Dewpoint Dewpoint Depression Visibility Wind Speed Wind Dir Waves Ship Positions

Kalenakliyat 2

Last reported at 2016-Sep-25 12:32 UTC. Time now 2016-Sep-27 12:10 UTC.
Position N 40°44' E 029°11'.

Length 72 m; draft 4.4 m.

Type: Cargo ship. MMSI: 271002023.

Date/timePositionNaut miles runAvg speedWind from/ knotsBaromVisibWave heightAir tempDewpointWater temp
2016-Sep-25 12:32N 40°44' E 029°11'9 8.4
2016-Sep-25 11:31N 40°45' E 029°22'0 0.1
2016-Sep-25 10:33N 40°45' E 029°22'0 0.0
2016-Sep-25 04:23N 40°45' E 029°22'9 0.2
2016-Sep-23 13:28N 40°44' E 029°11'9 1.3
2016-Sep-23 06:25N 40°45' E 029°22'0 0.0
2016-Sep-23 03:33N 40°45' E 029°22'8 7.8
2016-Sep-23 02:33N 40°44' E 029°12'9 9.3
2016-Sep-23 01:33N 40°43' E 029°00'1 0.0
2016-Sep-21 16:24N 40°42' E 028°59'18 2.3
2016-Sep-21 08:33N 40°45' E 029°22'0 0.0
2016-Sep-21 05:33N 40°45' E 029°22'3 1.6
2016-Sep-21 03:33N 40°45' E 029°18'10 9.6
2016-Sep-21 02:32N 40°43' E 029°05'1 0.0
2016-Sep-19 18:28N 40°44' E 029°06'13 6.4
2016-Sep-19 16:30N 40°45' E 029°22'0 0.0
2016-Sep-19 11:04N 40°45' E 029°22'6 4.3
2016-Sep-19 09:33N 40°48' E 029°14'5 2.7
2016-Sep-19 07:33N 40°53' E 029°11'0 0.0
2016-Sep-19 06:33N 40°53' E 029°11'8 2.8
2016-Sep-19 03:33N 40°48' E 029°02'  
2016-Sep-16 03:06N 39°55' E 026°07'  

Dump ship's entire track history